Time;durP1;ratioP1;P1;durP2;ratioP2;P2;SDS_P1;SDS_P2;PMS_P1;PMS_P2;Temp;Humidity;BMP_temperature;BMP_pressure;BME280_temperature;BME280_humidity;BME280_pressure;Samples;Min_cycle;Max_cycle;Signal;HPM_P1;HPM_P2
2023/09/27 00:00:57;;;;;;;12.73;3.65;;;22.40;68.70;;;;;;5055441;28;20024;-72
2023/09/27 00:03:22;;;;;;;10.20;4.00;;;22.40;68.60;;;;;;5055361;28;20032;-72
2023/09/27 00:05:48;;;;;;;7.95;4.25;;;22.40;68.30;;;;;;5055095;28;20420;-71
2023/09/27 00:08:14;;;;;;;11.75;4.40;;;22.50;67.50;;;;;;5054893;28;20138;-72
2023/09/27 00:10:40;;;;;;;8.82;4.35;;;22.50;67.60;;;;;;5054516;28;20029;-72
2023/09/27 00:13:05;;;;;;;13.90;4.55;;;22.50;68.20;;;;;;5055099;28;20059;-71
2023/09/27 00:15:31;;;;;;;9.60;4.45;;;22.50;68.50;;;;;;5055095;28;20052;-72
2023/09/27 00:17:58;;;;;;;9.18;4.20;;;22.40;68.50;;;;;;5054641;28;20028;-71
2023/09/27 00:20:24;;;;;;;13.88;4.15;;;22.40;68.80;;;;;;5054710;28;20048;-71
2023/09/27 00:22:50;;;;;;;10.07;4.30;;;22.30;68.90;;;;;;5054509;28;20025;-72
2023/09/27 00:25:16;;;;;;;11.27;4.50;;;22.30;69.00;;;;;;5054831;28;20055;-72
2023/09/27 00:27:42;;;;;;;9.25;4.07;;;22.20;69.10;;;;;;5054422;28;20017;-71
2023/09/27 00:30:14;;;;;;;11.38;3.95;;;22.20;69.10;;;;;;5054812;28;20033;-72
2023/09/27 00:32:40;;;;;;;14.52;4.60;;;22.20;69.20;;;;;;5054682;28;20029;-71
2023/09/27 00:35:12;;;;;;;13.73;4.35;;;22.20;69.20;;;;;;5054385;28;20424;-72
2023/09/27 00:37:38;;;;;;;8.25;4.22;;;22.20;69.40;;;;;;5054583;28;20473;-72
2023/09/27 00:40:10;;;;;;;16.13;4.53;;;22.10;69.20;;;;;;5054552;28;20049;-72
2023/09/27 00:42:35;;;;;;;;;;;22.10;69.30;;;;;;5054781;28;20057;-72
2023/09/27 00:45:01;;;;;;;11.50;4.93;;;22.10;69.20;;;;;;5054457;28;20648;-71
2023/09/27 00:47:27;;;;;;;15.32;4.43;;;22.10;69.00;;;;;;5054343;28;20116;-71
2023/09/27 00:49:53;;;;;;;15.30;4.57;;;22.00;68.70;;;;;;5053945;28;20484;-72
2023/09/27 00:52:19;;;;;;;15.50;3.95;;;22.00;68.70;;;;;;5054428;28;20058;-70
2023/09/27 00:54:45;;;;;;;10.98;4.07;;;22.00;69.00;;;;;;5053133;28;20037;-72
2023/09/27 00:57:11;;;;;;;12.05;4.13;;;22.00;69.00;;;;;;5054375;28;20025;-72
2023/09/27 00:59:37;;;;;;;12.70;4.63;;;22.00;69.00;;;;;;5050032;28;20017;-70
2023/09/27 01:02:04;;;;;;;12.90;4.55;;;22.00;69.00;;;;;;5050239;28;20036;-72
2023/09/27 01:04:30;;;;;;;14.43;4.05;;;22.00;68.90;;;;;;5052354;28;20090;-72
2023/09/27 01:06:56;;;;;;;13.45;4.38;;;22.00;68.70;;;;;;5053879;28;20480;-71
2023/09/27 01:09:21;;;;;;;15.32;5.07;;;22.00;68.80;;;;;;5054225;28;20107;-73
2023/09/27 01:11:47;;;;;;;8.13;4.20;;;21.90;69.20;;;;;;5054117;28;20032;-72
2023/09/27 01:14:13;;;;;;;17.42;4.22;;;21.90;69.60;;;;;;5053757;28;20032;-72
2023/09/27 01:16:39;;;;;;;21.15;4.45;;;21.90;69.60;;;;;;5053961;28;20017;-72
2023/09/27 01:19:05;;;;;;;9.77;3.67;;;21.90;69.80;;;;;;5053846;28;20028;-72
2023/09/27 01:21:31;;;;;;;17.70;4.60;;;21.90;70.10;;;;;;5053506;28;20108;-72
2023/09/27 01:23:57;;;;;;;17.83;5.00;;;21.90;70.00;;;;;;5052692;28;20029;-72
2023/09/27 01:26:23;;;;;;;9.07;4.80;;;21.80;69.50;;;;;;5053397;28;20032;-72
2023/09/27 01:28:49;;;;;;;11.52;4.20;;;21.90;69.30;;;;;;5053290;28;20033;-72
2023/09/27 01:31:15;;;;;;;14.27;4.70;;;21.90;68.90;;;;;;5053598;28;20096;-71
2023/09/27 01:33:41;;;;;;;12.40;4.35;;;21.90;69.00;;;;;;5053538;28;20025;-72
2023/09/27 01:36:07;;;;;;;9.50;3.65;;;21.80;69.40;;;;;;5052281;28;20029;-72
2023/09/27 01:38:33;;;;;;;10.40;3.95;;;21.90;69.10;;;;;;5053496;28;20525;-72
2023/09/27 01:40:59;;;;;;;9.00;3.97;;;21.90;68.20;;;;;;5053543;28;20025;-72
2023/09/27 01:43:25;;;;;;;18.05;4.10;;;21.80;68.10;;;;;;5053189;28;20021;-72
2023/09/27 01:45:51;;;;;;;8.15;3.72;;;21.80;68.60;;;;;;5053286;28;20060;-72
2023/09/27 01:48:19;;;;;;;11.40;4.18;;;21.80;68.60;;;;;;5053191;28;20025;-71
2023/09/27 01:50:45;;;;;;;15.55;4.63;;;21.80;67.60;;;;;;5052090;28;20033;-71
2023/09/27 01:53:11;;;;;;;10.50;3.75;;;21.80;67.30;;;;;;5053456;28;20025;-72
2023/09/27 01:55:36;;;;;;;16.38;4.07;;;21.80;67.50;;;;;;5053469;28;20054;-72
2023/09/27 01:58:02;;;;;;;13.30;4.57;;;21.80;67.60;;;;;;5053207;28;20021;-72
2023/09/27 02:00:29;;;;;;;14.18;3.78;;;21.80;67.20;;;;;;5053224;28;20036;-71
2023/09/27 02:02:56;;;;;;;8.93;4.20;;;21.80;67.10;;;;;;5052951;28;20033;-72
2023/09/27 02:05:23;;;;;;;13.35;4.20;;;21.90;67.50;;;;;;5052802;28;20055;-71
2023/09/27 02:07:49;;;;;;;14.27;4.63;;;21.90;67.00;;;;;;5052921;28;20035;-72
2023/09/27 02:10:15;;;;;;;16.27;4.00;;;21.80;67.10;;;;;;5052881;28;20037;-72
2023/09/27 02:12:41;;;;;;;10.18;4.20;;;21.80;67.50;;;;;;5052739;28;20032;-71
2023/09/27 02:15:08;;;;;;;7.18;3.90;;;21.80;67.70;;;;;;5051662;28;20025;-71
2023/09/27 02:17:37;;;;;;;15.55;4.53;;;21.80;67.50;;;;;;5052592;28;20021;-72
2023/09/27 02:20:07;;;;;;;9.45;4.30;;;21.80;67.20;;;;;;5052382;28;20028;-71
2023/09/27 02:22:34;;;;;;;10.95;3.95;;;21.80;67.10;;;;;;5051253;28;20029;-71
2023/09/27 02:25:00;;;;;;;14.77;4.53;;;21.80;67.10;;;;;;5052601;28;20029;-72
2023/09/27 02:27:25;;;;;;;17.08;4.13;;;21.80;67.20;;;;;;5052563;28;20112;-72
2023/09/27 02:29:51;;;;;;;10.75;3.90;;;21.80;67.40;;;;;;5052760;28;20474;-73
2023/09/27 02:32:17;;;;;;;11.45;4.10;;;21.80;67.90;;;;;;5052794;28;20029;-72
2023/09/27 02:34:44;;;;;;;14.95;3.90;;;21.80;67.80;;;;;;5052455;28;20472;-71
2023/09/27 02:37:09;;;;;;;12.25;4.38;;;21.80;67.70;;;;;;5052402;28;20037;-71
2023/09/27 02:39:35;;;;;;;11.88;4.28;;;21.70;67.70;;;;;;5052596;28;20029;-72
2023/09/27 02:42:03;;;;;;;19.90;4.53;;;21.70;68.10;;;;;;5052645;28;20503;-72
2023/09/27 02:44:29;;;;;;;10.23;4.15;;;21.70;68.30;;;;;;5052285;28;20761;-72
2023/09/27 02:46:55;;;;;;;7.50;3.97;;;21.70;68.20;;;;;;5052432;28;20044;-71
2023/09/27 02:49:21;;;;;;;15.10;4.22;;;21.70;68.20;;;;;;5052526;28;20090;-72
2023/09/27 02:51:51;;;;;;;14.65;4.10;;;21.70;68.10;;;;;;5052355;28;20040;-72
2023/09/27 02:54:18;;;;;;;14.88;4.20;;;21.70;68.20;;;;;;5052652;28;20029;-71
2023/09/27 02:56:43;;;;;;;10.25;4.63;;;21.70;68.40;;;;;;5052389;28;20100;-72
2023/09/27 02:59:13;;;;;;;15.15;4.35;;;21.60;68.30;;;;;;5051250;28;20136;-72
2023/09/27 03:01:43;;;;;;;8.60;3.70;;;21.60;68.40;;;;;;5052471;28;20070;-71
2023/09/27 03:04:10;;;;;;;14.95;4.03;;;21.70;68.70;;;;;;5052493;28;20103;-71
2023/09/27 03:06:37;;;;;;;14.20;4.50;;;21.60;68.60;;;;;;5052394;28;20104;-72
2023/09/27 03:09:04;;;;;;;10.80;3.97;;;21.60;68.90;;;;;;5051013;28;20032;-71
2023/09/27 03:11:30;;;;;;;13.35;4.03;;;21.60;69.30;;;;;;5052196;28;20021;-72
2023/09/27 03:13:56;;;;;;;12.70;4.20;;;21.60;69.40;;;;;;5052552;28;20071;-71
2023/09/27 03:16:22;;;;;;;13.23;4.40;;;21.60;69.80;;;;;;5052359;28;20100;-72
2023/09/27 03:18:47;;;;;;;10.80;4.18;;;21.60;70.00;;;;;;5052164;28;20025;-73
2023/09/27 03:21:13;;;;;;;9.27;4.50;;;21.50;69.70;;;;;;5052399;28;20017;-72
2023/09/27 03:23:39;;;;;;;11.13;3.97;;;21.50;69.90;;;;;;5051934;28;20031;-72
2023/09/27 03:26:05;;;;;;;16.13;4.30;;;21.40;70.00;;;;;;5052485;28;20031;-72
2023/09/27 03:28:31;;;;;;;17.02;4.82;;;21.50;70.20;;;;;;5050999;28;20040;-72
2023/09/27 03:30:57;;;;;;;9.27;4.40;;;21.40;70.40;;;;;;5052351;28;20037;-72
2023/09/27 03:33:22;;;;;;;12.25;3.67;;;21.40;70.60;;;;;;5052148;28;20032;-72
2023/09/27 03:35:48;;;;;;;11.90;4.25;;;21.40;70.70;;;;;;5052164;28;20388;-72
2023/09/27 03:38:14;;;;;;;12.55;4.13;;;21.40;70.60;;;;;;5052149;28;20056;-71
2023/09/27 03:40:40;;;;;;;9.80;4.65;;;21.30;70.80;;;;;;5051711;28;20096;-72
2023/09/27 03:43:06;;;;;;;12.32;3.83;;;21.30;71.20;;;;;;5051902;28;20488;-72
2023/09/27 03:45:34;;;;;;;10.10;3.80;;;21.30;71.40;;;;;;5052230;28;20077;-70
2023/09/27 03:47:59;;;;;;;16.98;4.50;;;21.30;71.50;;;;;;5055501;28;20428;-71
2023/09/27 03:50:25;;;;;;;8.90;4.70;;;21.30;71.70;;;;;;5055513;28;20171;-72
2023/09/27 03:52:56;;;;;;;14.93;4.10;;;21.20;72.30;;;;;;5055364;28;20390;-72
2023/09/27 03:55:22;;;;;;;10.23;4.22;;;21.20;71.70;;;;;;5054106;28;20163;-72
2023/09/27 03:57:47;;;;;;;11.95;4.10;;;21.20;71.80;;;;;;5055540;28;20474;-72
2023/09/27 04:00:14;;;;;;;13.88;4.82;;;21.20;71.40;;;;;;5055486;28;20052;-72
2023/09/27 04:02:41;;;;;;;11.18;4.28;;;21.20;71.30;;;;;;5055383;28;20070;-72
2023/09/27 04:05:07;;;;;;;14.35;4.22;;;21.20;71.50;;;;;;5055343;28;20164;-71
2023/09/27 04:07:33;;;;;;;11.20;4.88;;;21.20;71.50;;;;;;5055352;28;20530;-72
2023/09/27 04:10:00;;;;;;;15.40;4.88;;;21.20;71.40;;;;;;5054901;28;20057;-72
2023/09/27 04:12:26;;;;;;;9.65;4.05;;;21.10;71.60;;;;;;5055254;28;20024;-71
2023/09/27 04:14:52;;;;;;;11.73;4.40;;;21.10;71.40;;;;;;5048337;28;20443;-71
2023/09/27 04:17:17;;;;;;;12.75;3.92;;;21.10;71.60;;;;;;5055331;28;20462;-71
2023/09/27 04:19:43;;;;;;;12.38;3.72;;;21.10;71.80;;;;;;5055155;28;20032;-72
2023/09/27 04:22:09;;;;;;;11.95;4.20;;;21.10;71.80;;;;;;5055045;28;20032;-72
2023/09/27 04:24:35;;;;;;;14.32;3.63;;;21.10;71.70;;;;;;5054638;28;20021;-72
2023/09/27 04:27:00;;;;;;;12.07;4.15;;;21.10;71.70;;;;;;5054947;28;20013;-71
2023/09/27 04:29:26;;;;;;;9.20;3.78;;;21.10;71.60;;;;;;5055035;28;20419;-72
2023/09/27 04:31:53;;;;;;;7.57;4.22;;;21.10;71.30;;;;;;5051871;28;20040;-70
2023/09/27 04:34:18;;;;;;;15.02;4.47;;;21.10;71.00;;;;;;5051857;28;20112;-71
2023/09/27 04:36:44;;;;;;;13.65;4.38;;;21.10;71.40;;;;;;5054920;28;20108;-71
2023/09/27 04:39:16;;;;;;;14.82;4.28;;;21.10;71.40;;;;;;5054673;28;20041;-72
2023/09/27 04:41:43;;;;;;;12.75;4.43;;;21.10;71.60;;;;;;5054659;28;20021;-72
2023/09/27 04:44:09;;;;;;;18.30;5.30;;;21.10;71.70;;;;;;5054558;28;20517;-72
2023/09/27 04:46:35;;;;;;;10.48;4.05;;;21.10;71.90;;;;;;5054330;28;20116;-72
2023/09/27 04:49:02;;;;;;;16.83;4.43;;;21.10;72.00;;;;;;5054165;28;20064;-71
2023/09/27 04:51:28;;;;;;;10.32;3.97;;;21.10;72.20;;;;;;5054662;28;20541;-72
2023/09/27 04:53:53;;;;;;;12.43;4.22;;;21.00;71.80;;;;;;5054278;28;20104;-72
2023/09/27 04:56:19;;;;;;;12.43;3.95;;;21.00;71.80;;;;;;5054610;28;20021;-71
2023/09/27 04:58:45;;;;;;;14.85;4.97;;;21.00;72.00;;;;;;5054400;28;20170;-71
2023/09/27 05:01:10;;;;;;;8.68;4.32;;;21.00;72.60;;;;;;5035289;28;20033;-71
2023/09/27 05:03:37;;;;;;;12.98;4.20;;;21.00;72.60;;;;;;5033964;28;20022;-72
2023/09/27 05:06:03;;;;;;;13.10;4.57;;;20.90;72.90;;;;;;5034041;28;20021;-72
2023/09/27 05:08:29;;;;;;;21.35;4.55;;;21.00;73.00;;;;;;5034138;28;20044;-72
2023/09/27 05:10:56;;;;;;;14.85;4.80;;;20.90;72.90;;;;;;5034209;28;20029;-71
2023/09/27 05:13:22;;;;;;;15.68;4.30;;;20.90;72.80;;;;;;5033954;28;20370;-71
2023/09/27 05:15:52;;;;;;;8.95;4.05;;;20.90;72.60;;;;;;5033934;28;20017;-71
2023/09/27 05:18:18;;;;;;;9.82;3.97;;;20.90;72.50;;;;;;5033784;28;20561;-71
2023/09/27 05:20:44;;;;;;;9.13;4.13;;;20.90;72.80;;;;;;5033688;28;20025;-72
2023/09/27 05:23:10;;;;;;;21.65;4.40;;;20.80;73.00;;;;;;5033913;28;20025;-72
2023/09/27 05:25:36;;;;;;;14.02;4.20;;;20.90;73.20;;;;;;5033953;28;20075;-71
2023/09/27 05:28:02;;;;;;;17.25;4.35;;;20.80;73.40;;;;;;5032674;28;20416;-71
2023/09/27 05:30:27;;;;;;;14.20;4.43;;;20.80;73.40;;;;;;5033827;28;20091;-72
2023/09/27 05:32:53;;;;;;;13.52;4.47;;;20.90;73.50;;;;;;5033739;28;20025;-72
2023/09/27 05:35:19;;;;;;;10.27;4.13;;;20.80;73.50;;;;;;5033716;28;20036;-72
2023/09/27 05:37:44;;;;;;;15.68;4.90;;;20.80;73.40;;;;;;5033714;28;20030;-72
2023/09/27 05:40:11;;;;;;;16.30;5.47;;;20.80;73.00;;;;;;5033455;28;20063;-73
2023/09/27 05:42:40;;;;;;;16.13;4.53;;;20.80;73.20;;;;;;5033352;28;20025;-73
2023/09/27 05:45:10;;;;;;;12.27;4.03;;;20.80;73.20;;;;;;5052494;28;20044;-72
2023/09/27 05:47:36;;;;;;;12.32;4.30;;;20.80;73.30;;;;;;5052782;28;20078;-72
2023/09/27 05:50:04;;;;;;;12.60;4.30;;;20.80;73.40;;;;;;5052537;28;20041;-71
2023/09/27 05:52:34;;;;;;;14.32;4.32;;;20.80;73.20;;;;;;5052916;28;20103;-72
2023/09/27 05:55:00;;;;;;;12.10;4.55;;;20.90;73.40;;;;;;5068066;28;20052;-72
2023/09/27 05:57:25;;;;;;;7.50;4.32;;;20.90;73.30;;;;;;5053235;28;20473;-72
2023/09/27 05:59:51;;;;;;;10.70;4.05;;;20.90;73.20;;;;;;5052773;28;20021;-72
2023/09/27 06:02:17;;;;;;;24.30;4.70;;;20.90;73.30;;;;;;5052824;28;20025;-72
2023/09/27 06:04:51;;;;;;;15.55;4.60;;;20.90;73.40;;;;;;5052786;28;20162;-72
2023/09/27 06:07:18;;;;;;;17.15;4.20;;;21.00;73.40;;;;;;5052535;28;20162;-72
2023/09/27 06:09:44;;;;;;;9.77;4.10;;;21.00;72.90;;;;;;5052488;28;20041;-76
2023/09/27 06:12:10;;;;;;;16.05;4.93;;;21.00;73.10;;;;;;5052025;28;20362;-77
2023/09/27 06:14:38;;;;;;;11.05;4.22;;;21.00;73.20;;;;;;5051870;28;20388;-76
2023/09/27 06:17:05;;;;;;;8.95;4.10;;;21.00;73.30;;;;;;5051906;28;20530;-78
2023/09/27 06:19:31;;;;;;;11.25;5.10;;;21.00;73.80;;;;;;5052422;28;20035;-76
2023/09/27 06:22:00;;;;;;;10.60;4.25;;;21.00;73.50;;;;;;5052264;28;20029;-74
2023/09/27 06:24:29;;;;;;;11.40;4.10;;;21.00;73.50;;;;;;5052296;28;20029;-73
2023/09/27 06:26:54;;;;;;;16.95;4.35;;;21.00;73.70;;;;;;5052483;28;20028;-75
2023/09/27 06:29:20;;;;;;;13.65;4.13;;;21.00;73.90;;;;;;5051958;28;20032;-75
2023/09/27 06:31:47;;;;;;;12.30;4.35;;;21.00;73.90;;;;;;5051734;28;20032;-70
2023/09/27 06:34:16;;;;;;;15.45;4.22;;;21.00;74.10;;;;;;5052382;28;20025;-70
2023/09/27 06:36:42;;;;;;;11.50;3.90;;;21.00;74.10;;;;;;5051143;28;20556;-71
2023/09/27 06:39:15;;;;;;;9.10;3.83;;;21.10;74.30;;;;;;5052257;28;20056;-72
2023/09/27 06:41:45;;;;;;;12.80;4.38;;;21.10;74.50;;;;;;5052303;28;20441;-71
2023/09/27 06:44:12;;;;;;;14.10;5.20;;;21.10;74.40;;;;;;5050774;28;20508;-72
2023/09/27 06:46:38;;;;;;;8.77;3.95;;;21.20;74.80;;;;;;5052425;28;20029;-72
2023/09/27 06:49:04;;;;;;;16.98;4.25;;;21.20;74.40;;;;;;5052383;28;20033;-70
2023/09/27 06:51:31;;;;;;;14.27;4.68;;;21.20;74.20;;;;;;5052187;28;20029;-70
2023/09/27 06:53:57;;;;;;;11.90;4.47;;;21.20;74.60;;;;;;5051726;28;20025;-72
2023/09/27 06:56:23;;;;;;;13.35;4.63;;;21.20;74.80;;;;;;5052181;28;20048;-71
2023/09/27 06:58:49;;;;;;;16.80;4.85;;;21.20;74.70;;;;;;5051765;28;20469;-71
2023/09/27 07:01:15;;;;;;;17.25;4.60;;;21.30;75.20;;;;;;5051950;28;20081;-71
2023/09/27 07:03:41;;;;;;;12.05;4.13;;;21.30;75.00;;;;;;5052348;28;20013;-70
2023/09/27 07:06:07;;;;;;;9.93;4.15;;;21.30;75.00;;;;;;5052317;28;20044;-72
2023/09/27 07:08:33;;;;;;;13.48;3.75;;;21.40;75.10;;;;;;5052388;28;20108;-71
2023/09/27 07:11:09;;;;;;;10.95;4.38;;;21.40;74.90;;;;;;5052309;28;20092;-71
2023/09/27 07:13:37;;;;;;;14.02;4.45;;;21.50;75.60;;;;;;5052395;28;20108;-71
2023/09/27 07:16:26;;;;;;;15.05;3.95;;;21.50;75.30;;;;;;5050911;28;20069;-71
2023/09/27 07:18:52;;;;;;;9.40;4.00;;;21.50;75.00;;;;;;5052372;28;20013;-71
2023/09/27 07:21:21;;;;;;;12.13;4.20;;;21.60;74.90;;;;;;5053888;28;20029;-71
2023/09/27 07:23:49;;;;;;;17.13;4.25;;;21.60;74.80;;;;;;5056052;28;20159;-71
2023/09/27 07:26:16;;;;;;;12.23;3.90;;;21.70;74.20;;;;;;5055861;28;20108;-72
2023/09/27 07:28:42;;;;;;;15.43;4.40;;;21.70;74.10;;;;;;5054825;28;20025;-72
2023/09/27 07:31:08;;;;;;;15.32;4.53;;;21.70;74.00;;;;;;5054131;28;20040;-72
2023/09/27 07:33:34;;;;;;;15.48;4.45;;;21.80;74.00;;;;;;5055795;28;20032;-71
2023/09/27 07:36:00;;;;;;;15.57;4.30;;;21.90;74.10;;;;;;5055881;28;20024;-71
2023/09/27 07:38:26;;;;;;;9.38;4.00;;;21.90;74.20;;;;;;5055633;28;20033;-72
2023/09/27 07:40:52;;;;;;;14.00;4.70;;;21.90;74.00;;;;;;5055771;28;20017;-71
2023/09/27 07:43:18;;;;;;;18.10;4.63;;;22.00;73.90;;;;;;5055799;28;20036;-71
2023/09/27 07:45:47;;;;;;;15.02;4.75;;;22.00;74.00;;;;;;5055638;28;20045;-73
2023/09/27 07:48:12;;;;;;;17.92;4.60;;;22.10;73.90;;;;;;5055716;28;20087;-73
2023/09/27 07:50:39;;;;;;;13.25;3.75;;;22.10;73.70;;;;;;5055916;28;20033;-73
2023/09/27 07:53:06;;;;;;;19.40;4.03;;;22.20;73.80;;;;;;5055724;28;20021;-72
2023/09/27 07:55:36;;;;;;;14.60;3.95;;;22.20;73.90;;;;;;5055587;28;20533;-73
2023/09/27 07:58:03;;;;;;;15.05;4.05;;;22.30;74.70;;;;;;5055525;28;20059;-71
2023/09/27 08:00:30;;;;;;;13.07;4.18;;;22.30;74.40;;;;;;5055631;28;20021;-78
2023/09/27 08:02:57;;;;;;;10.45;3.65;;;22.40;74.20;;;;;;5055742;28;20132;-75
2023/09/27 08:05:23;;;;;;;9.68;4.38;;;22.50;74.10;;;;;;5055402;28;20025;-75
2023/09/27 08:07:50;;;;;;;14.55;3.85;;;22.50;73.80;;;;;;5055015;28;20032;-75
2023/09/27 08:10:17;;;;;;;9.70;4.18;;;22.50;73.60;;;;;;5054415;28;20112;-76
2023/09/27 08:12:43;;;;;;;11.63;4.15;;;22.60;73.80;;;;;;5055187;28;20025;-78
2023/09/27 08:15:10;;;;;;;9.63;3.67;;;22.70;74.10;;;;;;5054092;28;20031;-76
2023/09/27 08:17:36;;;;;;;7.63;4.00;;;22.70;74.00;;;;;;5055010;28;20473;-77
2023/09/27 08:20:09;;;;;;;10.82;4.05;;;22.70;73.90;;;;;;5055025;28;20107;-75
2023/09/27 08:22:36;;;;;;;13.75;4.13;;;22.70;73.90;;;;;;5055201;28;20020;-77
2023/09/27 08:25:04;;;;;;;10.52;4.63;;;22.80;73.90;;;;;;5055063;28;20477;-76
2023/09/27 08:27:30;;;;;;;15.80;3.47;;;22.90;73.50;;;;;;5054850;28;20354;-76
2023/09/27 08:29:56;;;;;;;9.20;3.58;;;22.90;72.50;;;;;;5055077;28;20086;-77
2023/09/27 08:32:22;;;;;;;14.20;4.78;;;23.00;72.00;;;;;;5054589;28;20070;-76
2023/09/27 08:34:48;;;;;;;12.90;3.90;;;23.10;72.80;;;;;;5054869;28;20033;-75
2023/09/27 08:37:14;;;;;;;15.45;4.15;;;23.10;71.90;;;;;;5054626;28;20037;-75
2023/09/27 08:39:39;;;;;;;18.13;4.25;;;23.20;71.90;;;;;;5054890;28;20083;-74
2023/09/27 08:42:05;;;;;;;14.45;4.10;;;23.20;72.00;;;;;;5055058;28;20104;-74
2023/09/27 08:44:32;;;;;;;18.13;4.25;;;23.30;70.20;;;;;;5053986;28;20051;-75
2023/09/27 08:46:58;;;;;;;9.95;3.80;;;23.40;69.90;;;;;;5054105;28;20558;-74
2023/09/27 08:49:24;;;;;;;13.43;4.15;;;23.40;69.90;;;;;;5054354;28;20500;-74
2023/09/27 08:51:52;;;;;;;9.93;3.80;;;23.50;70.70;;;;;;5053295;28;20764;-74
2023/09/27 08:54:20;;;;;;;17.67;4.53;;;23.60;70.90;;;;;;5053564;28;20032;-74
2023/09/27 08:56:48;;;;;;;12.95;3.90;;;23.60;71.00;;;;;;5051630;28;20476;-74
2023/09/27 08:59:15;;;;;;;14.02;4.65;;;23.60;71.20;;;;;;5053613;28;20028;-74
2023/09/27 09:01:43;;;;;;;14.07;4.22;;;23.70;69.30;;;;;;5053266;28;20500;-75
2023/09/27 09:04:12;;;;;;;17.58;4.72;;;23.80;68.80;;;;;;5054161;28;20037;-75
2023/09/27 09:06:41;;;;;;;19.27;3.63;;;23.90;68.70;;;;;;5053890;28;20030;-75
2023/09/27 09:09:10;;;;;;;11.82;4.15;;;24.00;67.90;;;;;;5053802;28;20029;-74
2023/09/27 09:11:43;;;;;;;13.43;3.80;;;24.00;67.40;;;;;;5053839;28;20040;-74
2023/09/27 09:14:10;;;;;;;19.67;3.80;;;24.10;67.90;;;;;;5053557;28;20108;-75
2023/09/27 09:16:47;;;;;;;13.38;4.22;;;24.20;66.60;;;;;;5053599;28;20021;-74
2023/09/27 09:19:24;;;;;;;9.57;4.50;;;24.30;66.30;;;;;;5053561;28;20029;-75
2023/09/27 09:22:04;;;;;;;15.60;4.13;;;24.30;66.40;;;;;;5051998;28;20025;-75
2023/09/27 09:24:32;;;;;;;12.40;3.88;;;24.30;66.90;;;;;;5053697;28;20035;-74
2023/09/27 09:27:13;;;;;;;10.50;3.65;;;24.40;66.70;;;;;;5053742;28;20044;-74
2023/09/27 09:29:48;;;;;;;13.77;3.88;;;24.50;66.80;;;;;;5053641;28;20469;-74
2023/09/27 09:32:15;;;;;;;12.50;4.00;;;24.50;66.20;;;;;;5053455;28;20032;-74
2023/09/27 09:34:43;;;;;;;15.10;4.05;;;24.60;66.40;;;;;;5053468;28;20052;-74
2023/09/27 09:37:35;;;;;;;16.70;3.88;;;24.70;65.90;;;;;;5053214;28;20023;-74
2023/09/27 09:40:14;;;;;;;20.55;3.88;;;24.80;64.90;;;;;;5050451;28;20094;-75
2023/09/27 09:42:41;;;;;;;19.40;4.22;;;24.80;64.70;;;;;;5068594;28;20036;-75
2023/09/27 09:45:10;;;;;;;21.02;3.85;;;24.90;63.00;;;;;;5052334;28;20121;-75
2023/09/27 09:47:41;;;;;;;20.33;3.72;;;25.00;62.90;;;;;;5053187;28;20389;-74
2023/09/27 09:50:11;;;;;;;17.83;3.95;;;25.10;62.90;;;;;;5053113;28;20025;-74
2023/09/27 09:52:39;;;;;;;18.75;3.65;;;25.10;62.70;;;;;;5052753;28;20500;-73
2023/09/27 09:55:11;;;;;;;25.42;3.97;;;25.20;62.70;;;;;;5052819;28;20029;-75
2023/09/27 09:57:40;;;;;;;18.55;3.83;;;25.30;62.10;;;;;;5033298;28;20025;-75
2023/09/27 10:00:25;;;;;;;19.65;4.80;;;25.40;61.70;;;;;;5033116;28;20020;-75
2023/09/27 10:02:58;;;;;;;16.02;3.92;;;25.40;62.00;;;;;;5033505;28;20029;-75
2023/09/27 10:05:25;;;;;;;16.70;3.50;;;25.50;61.70;;;;;;5033245;28;20021;-75
2023/09/27 10:07:51;;;;;;;16.48;4.07;;;25.50;61.40;;;;;;5032881;28;20033;-75
2023/09/27 10:10:20;;;;;;;20.17;5.00;;;25.60;61.30;;;;;;5033179;28;20052;-75
2023/09/27 10:12:49;;;;;;;23.10;3.78;;;25.60;61.20;;;;;;5032937;28;20021;-74
2023/09/27 10:15:20;;;;;;;24.83;3.60;;;25.70;60.80;;;;;;5033036;28;20030;-75
2023/09/27 10:17:46;;;;;;;24.38;3.60;;;25.70;60.20;;;;;;5033088;28;20057;-75
2023/09/27 10:20:17;;;;;;;14.18;3.63;;;25.70;60.80;;;;;;5033022;28;20025;-75
2023/09/27 10:22:50;;;;;;;13.80;3.97;;;25.80;60.60;;;;;;5032428;28;20037;-75
2023/09/27 10:25:28;;;;;;;14.48;3.33;;;25.90;60.90;;;;;;5032425;28;20029;-75
2023/09/27 10:28:04;;;;;;;14.32;3.70;;;25.90;59.70;;;;;;5032333;28;20013;-74
2023/09/27 10:30:42;;;;;;;9.52;3.03;;;25.90;59.00;;;;;;5031657;28;20041;-74
2023/09/27 10:33:20;;;;;;;15.38;4.00;;;26.00;58.40;;;;;;5032315;28;20052;-74
2023/09/27 10:36:05;;;;;;;17.70;3.97;;;26.00;60.30;;;;;;5032597;28;20084;-76
2023/09/27 10:38:43;;;;;;;10.60;3.38;;;26.00;60.90;;;;;;5031361;28;20388;-73
2023/09/27 10:41:29;;;;;;;12.45;3.45;;;26.10;59.20;;;;;;5032998;28;20057;-75
2023/09/27 10:43:54;;;;;;;17.42;3.15;;;26.10;58.90;;;;;;5032739;28;20026;-73
2023/09/27 10:46:20;;;;;;;15.85;3.30;;;26.10;59.10;;;;;;5032141;28;20049;-75
2023/09/27 10:48:56;;;;;;;12.82;3.00;;;26.10;59.00;;;;;;5032864;28;20037;-74
2023/09/27 10:51:25;;;;;;;13.10;3.10;;;26.10;58.20;;;;;;5032661;28;20021;-75
2023/09/27 10:53:51;;;;;;;10.77;3.08;;;26.10;58.60;;;;;;5032539;28;20373;-73
2023/09/27 10:56:17;;;;;;;11.23;3.10;;;26.20;58.50;;;;;;5035979;28;20029;-73
2023/09/27 10:58:49;;;;;;;11.52;2.85;;;26.30;57.50;;;;;;5036793;28;20018;-73
2023/09/27 11:01:22;;;;;;;;;;;26.30;57.20;;;;;;5035880;28;20061;-73
2023/09/27 11:03:56;;;;;;;13.43;3.13;;;26.30;57.70;;;;;;5036827;28;20383;-73
2023/09/27 11:06:22;;;;;;;17.23;2.95;;;26.30;57.80;;;;;;5052251;28;20036;-74
2023/09/27 11:08:47;;;;;;;10.20;3.08;;;26.40;57.30;;;;;;5056340;28;20033;-73
2023/09/27 11:11:14;;;;;;;12.10;3.20;;;26.40;56.80;;;;;;5056154;28;20017;-73
2023/09/27 11:13:43;;;;;;;13.80;2.92;;;26.40;55.30;;;;;;5056358;28;20029;-73
2023/09/27 11:16:18;;;;;;;10.43;2.80;;;26.40;53.50;;;;;;5056259;28;20040;-73
2023/09/27 11:18:57;;;;;;;12.02;3.00;;;26.50;54.70;;;;;;5054606;28;20040;-75
2023/09/27 11:21:25;;;;;;;10.38;3.00;;;26.60;54.00;;;;;;5056019;28;20029;-73
2023/09/27 11:23:54;;;;;;;16.05;2.70;;;26.60;53.90;;;;;;5055990;28;20029;-73
2023/09/27 11:26:21;;;;;;;9.70;2.53;;;26.60;53.80;;;;;;5056253;28;20021;-74
2023/09/27 11:29:07;;;;;;;13.85;2.30;;;26.70;49.70;;;;;;5056192;28;20354;-72
2023/09/27 11:31:35;;;;;;;11.65;3.03;;;26.70;49.60;;;;;;5055679;28;20497;-74
2023/09/27 11:34:17;;;;;;;12.32;2.80;;;26.70;50.30;;;;;;5056062;28;20051;-73
2023/09/27 11:36:51;;;;;;;8.38;2.53;;;26.70;51.60;;;;;;5055992;28;20092;-74
2023/09/27 11:39:19;;;;;;;13.93;3.10;;;26.70;51.60;;;;;;5055914;28;20070;-74
2023/09/27 11:41:45;;;;;;;10.23;2.78;;;26.80;52.30;;;;;;5055903;28;20036;-74
2023/09/27 11:44:24;;;;;;;9.98;2.67;;;26.80;53.10;;;;;;5055611;28;20074;-73
2023/09/27 11:46:51;;;;;;;9.95;3.00;;;26.80;53.00;;;;;;5055813;28;20090;-74
2023/09/27 11:49:26;;;;;;;10.30;2.70;;;26.90;51.70;;;;;;5055468;28;20477;-73
2023/09/27 11:51:52;;;;;;;8.52;2.55;;;26.90;50.70;;;;;;5055783;28;20025;-75
2023/09/27 11:54:17;;;;;;;10.50;2.42;;;26.90;51.20;;;;;;5055374;28;20389;-73
2023/09/27 11:56:46;;;;;;;10.40;2.75;;;26.90;47.30;;;;;;5054941;28;20032;-74
2023/09/27 11:59:12;;;;;;;7.10;2.22;;;26.90;46.80;;;;;;5054948;28;20028;-74
2023/09/27 12:01:39;;;;;;;5.72;2.10;;;27.00;46.80;;;;;;5054641;28;20021;-74
2023/09/27 12:04:05;;;;;;;4.38;2.47;;;27.00;48.00;;;;;;5053642;28;20477;-74
2023/09/27 12:06:31;;;;;;;8.30;2.53;;;27.00;47.20;;;;;;5054315;28;20098;-74
2023/09/27 12:08:58;;;;;;;6.10;2.50;;;27.00;46.90;;;;;;5055063;28;20515;-73
2023/09/27 12:11:24;;;;;;;5.53;2.22;;;27.10;47.60;;;;;;5054964;28;20036;-74
2023/09/27 12:13:51;;;;;;;4.57;2.17;;;27.10;46.60;;;;;;5055399;28;20509;-73
2023/09/27 12:16:19;;;;;;;14.10;2.92;;;27.10;47.40;;;;;;5055129;28;20033;-74
2023/09/27 12:18:45;;;;;;;7.45;2.50;;;27.10;48.20;;;;;;5053576;28;20119;-74
2023/09/27 12:21:11;;;;;;;7.35;2.90;;;27.20;48.50;;;;;;5055042;28;20112;-74
2023/09/27 12:23:36;;;;;;;12.40;2.92;;;27.20;47.40;;;;;;5054874;28;20032;-74
2023/09/27 12:26:02;;;;;;;8.75;2.60;;;27.20;47.90;;;;;;5054768;28;20453;-74
2023/09/27 12:28:28;;;;;;;10.35;3.10;;;27.20;47.80;;;;;;5053734;28;20450;-75
2023/09/27 12:30:54;;;;;;;13.02;2.42;;;27.20;47.10;;;;;;5055026;28;20508;-75
2023/09/27 12:33:19;;;;;;;6.60;2.10;;;27.20;47.30;;;;;;5054640;28;20025;-74
2023/09/27 12:35:46;;;;;;;6.78;2.65;;;27.20;47.30;;;;;;5054723;28;20362;-74
2023/09/27 12:38:12;;;;;;;5.82;2.30;;;27.20;47.00;;;;;;5054727;28;20095;-74
2023/09/27 12:40:38;;;;;;;7.93;2.40;;;27.30;46.90;;;;;;5054803;28;20017;-74
2023/09/27 12:43:04;;;;;;;10.48;2.33;;;27.30;47.60;;;;;;5054932;28;20036;-74